Latest Weather Observations for Creal Reef

IDQ60801

Issued at 12:32 am EST Wednesday 26 April 2017 (issued every 30 minutes, with the page automatically refreshed every 10 minutes)

About weather observations | Map of weather stations | Latest weather observations for QLD | Other Formats
Station Details ID: 200736 Name: CREAL REEF Lat: -20.53 Lon: 150.38 Height: 1.7 m
Data from the previous 72 hours. | See also: Recent months for locations in Queensland
Date/Time
EST
Temp
°C
App
Temp
°C
Dew
Point
°C
Rel
Hum
%
Delta-T
°C
Wind Press
QNH
hPa
Press
MSL
hPa
Rain since
9am
mm
Dir  Spd
km/h
Gust
km/h
Spd
kts
Gust
kts
26/12:30am 24.9 - - - - S 7 9 4 5 1014.5 - -
26/12:20am 25.0 - - - - S 7 9 4 5 1014.6 1014.5 -
26/12:00am 24.9 - - - - S 11 13 6 7 1014.7 - -
 
Date/Time
EST
Temp
°C
App
Temp
°C
Dew
Point
°C
Rel
Hum
%
Delta-T
°C
Wind Press
QNH
hPa
Press
MSL
hPa
Rain since
9am
mm
Dir  Spd
km/h
Gust
km/h
Spd
kts
Gust
kts
25/11:30pm 25.2 - - - - SE 7 9 4 5 1014.9 - -
25/11:20pm 25.2 - - - - SE 9 - 5 - - 1014.9 -
25/11:00pm 25.2 - - - - ESE 6 9 3 5 1015.0 - -
25/10:30pm 25.2 - - - - SE 7 13 4 7 1015.2 - -
25/10:20pm 25.2 - - - - SE 9 - 5 - - 1015.1 -
25/10:00pm 25.3 - - - - SE 15 17 8 9 1015.1 - -
25/09:30pm 25.3 - - - - ESE 13 17 7 9 1015.1 - -
25/09:20pm 25.2 - - - - ESE 15 - 8 - - 1014.9 -
25/09:00pm 25.4 - - - - SE 19 20 10 11 1015.0 - -
25/08:30pm 25.3 - - - - SE 19 20 10 11 1015.3 - -
25/08:20pm 25.5 - - - - SE 17 - 9 - - 1015.1 -
25/08:00pm 25.5 - - - - SE 19 22 10 12 1015.3 - -
25/07:30pm 25.4 - - - - SE 17 20 9 11 1015.1 - -
25/07:20pm 25.4 - - - - SE 15 - 8 - - 1014.9 -
25/07:00pm 25.4 - - - - SE 17 20 9 11 1014.8 - -
25/06:30pm 25.4 - - - - SE 17 22 9 12 1014.2 - -
25/06:20pm 25.5 - - - - SE 19 - 10 - - 1014.0 -
25/06:00pm 25.4 - - - - SE 19 22 10 12 1013.9 - -
25/05:30pm 25.6 - - - - SE 19 22 10 12 1013.8 - -
25/05:20pm 25.5 - - - - SE 19 - 10 - - 1013.7 -
25/05:00pm 25.6 - - - - SE 19 24 10 13 1013.6 - -
25/04:30pm 25.6 - - - - SE 20 24 11 13 1013.5 - -
25/04:20pm 25.7 - - - - SE 19 - 10 - - 1013.3 -
25/04:00pm 25.6 - - - - SE 20 22 11 12 1013.4 - -
25/03:30pm 25.6 - - - - SE 19 22 10 12 1013.2 - -
25/03:20pm 25.6 - - - - SE 19 - 10 - - 1013.1 -
25/03:00pm 25.7 - - - - SE 19 20 10 11 1013.3 - -
25/02:30pm 25.6 - - - - SE 20 24 11 13 1013.4 - -
25/02:20pm 25.5 - - - - SE 20 - 11 - - 1013.3 -
25/02:00pm 25.5 - - - - SE 20 26 11 14 1013.5 - -
25/01:30pm 25.5 - - - - SE 20 24 11 13 1013.9 - -
25/01:20pm 25.3 - - - - SE 20 - 11 - - 1013.8 -
25/01:00pm 25.3 - - - - SE 20 26 11 14 1014.3 - -
25/12:30pm 25.3 - - - - SE 22 26 12 14 1014.7 - -
25/12:20pm 25.4 - - - - SE 22 - 12 - - 1014.7 -
25/12:00pm 25.3 - - - - SE 22 26 12 14 1015.1 - -
25/11:30am 25.3 - - - - SE 22 26 12 14 1015.6 - -
25/11:20am 25.3 - - - - SE 20 - 11 - - 1015.6 -
25/11:00am 25.4 - - - - SE 22 26 12 14 1016.0 - -
25/10:30am 25.3 - - - - SE 26 30 14 16 1016.3 - -
25/10:20am 25.4 - - - - SE 26 - 14 - - 1016.3 -
25/10:00am 25.3 - - - - SE 26 30 14 16 1016.6 - -
25/09:30am 25.4 - - - - SE 28 32 15 17 1016.6 - -
25/09:20am 25.5 - - - - SE 28 - 15 - - 1016.4 -
25/09:00am 25.4 - - - - SE 28 32 15 17 1016.5 - -
25/08:30am 25.4 - - - - SE 26 30 14 16 1016.1 - -
25/08:20am 25.4 - - - - SE 28 - 15 - - 1016.0 -
25/08:00am 25.1 - - - - SE 30 35 16 19 1016.0 - -
25/07:30am 25.3 - - - - SE 28 32 15 17 1015.8 - -
25/07:20am 25.2 - - - - SE 28 - 15 - - 1015.6 -
25/07:00am 25.2 - - - - SE 28 33 15 18 1015.6 - -
25/06:30am 25.2 - - - - SE 28 30 15 16 1015.4 - -
25/06:20am 25.1 - - - - SE 28 - 15 - - 1015.2 -
25/06:00am 25.2 - - - - SE 28 35 15 19 1015.1 - -
25/05:30am 25.1 - - - - SE 28 32 15 17 1014.7 - -
25/05:20am 25.1 - - - - SE 30 - 16 - - 1014.5 -
25/05:00am 25.0 - - - - SSE 30 35 16 19 1014.4 - -
25/04:30am 24.9 - - - - SSE 28 33 15 18 1014.2 - -
25/04:20am 24.9 - - - - SE 28 - 15 - - 1014.1 -
25/04:00am 24.8 - - - - SE 30 33 16 18 1014.3 - -
25/03:30am 24.8 - - - - SE 30 33 16 18 1014.3 - -
25/03:20am 24.9 - - - - SE 28 - 15 - - 1014.2 -
25/03:00am 24.7 - - - - SE 30 33 16 18 1014.4 - -
25/02:30am 24.9 - - - - SE 32 35 17 19 1014.4 - -
25/02:20am 25.0 - - - - SE 30 - 16 - - 1014.4 -
25/02:00am 25.0 - - - - SE 28 35 15 19 1014.7 - -
25/01:30am 25.1 - - - - SE 30 33 16 18 1015.0 - -
25/01:20am 25.0 - - - - SE 28 - 15 - - 1015.1 -
25/01:00am 25.1 - - - - SE 28 32 15 17 1015.5 - -
25/12:30am 25.2 - - - - SE 28 32 15 17 1015.7 - -
25/12:20am 25.3 - - - - SE 28 - 15 - - 1015.7 -
25/12:00am 25.4 - - - - SE 28 32 15 17 1016.0 - -
 
Date/Time
EST
Temp
°C
App
Temp
°C
Dew
Point
°C
Rel
Hum
%
Delta-T
°C
Wind Press
QNH
hPa
Press
MSL
hPa
Rain since
9am
mm
Dir  Spd
km/h
Gust
km/h
Spd
kts
Gust
kts
24/11:30pm 25.4 - - - - SE 28 35 15 19 1016.3 - -
24/11:20pm 25.3 - - - - SE 28 - 15 - - 1016.3 -
24/11:00pm 25.4 - - - - SE 26 30 14 16 1016.6 - -
24/10:30pm 25.4 - - - - ESE 26 30 14 16 1016.8 - -
24/10:20pm 25.4 - - - - ESE 26 - 14 - - 1016.8 -
24/10:00pm 25.4 - - - - ESE 26 32 14 17 1017.1 - -
24/09:30pm 25.5 - - - - SE 28 32 15 17 1017.3 - -
24/09:20pm 25.6 - - - - SE 26 - 14 - - 1017.1 -
24/09:00pm 25.5 - - - - ESE 26 32 14 17 1017.2 - -
24/08:30pm 25.6 - - - - SE 28 32 15 17 1017.2 - -
24/08:20pm 25.6 - - - - SE 30 - 16 - - 1017.1 -
24/08:00pm 25.5 - - - - SE 30 35 16 19 1017.0 - -
24/07:30pm 25.6 - - - - SE 30 35 16 19 1016.8 - -
24/07:20pm 25.7 - - - - SE 28 - 15 - - 1016.7 -
24/07:00pm 25.6 - - - - SE 26 32 14 17 1016.5 - -
24/06:30pm 25.5 - - - - SE 30 35 16 19 1016.2 - -
24/06:20pm 25.5 - - - - SE 28 - 15 - - 1016.0 -
24/06:00pm 25.7 - - - - SE 28 32 15 17 1015.9 - -
24/05:30pm 25.7 - - - - SE 30 35 16 19 1015.8 - -
24/05:20pm 25.6 - - - - SE 30 - 16 - - 1015.6 -
24/05:00pm 25.4 - - - - SE 26 32 14 17 1015.4 - -
24/04:30pm 25.5 - - - - SE 32 39 17 21 1015.3 - -
24/04:20pm 25.2 - - - - SE 33 - 18 - - 1015.1 -
24/04:00pm 25.7 - - - - SE 26 30 14 16 1015.1 - -
24/03:30pm 25.6 - - - - SE 28 32 15 17 1014.8 - -
24/03:20pm 25.6 - - - - SE 28 - 15 - - 1014.7 -
24/03:00pm 25.7 - - - - SE 28 33 15 18 1014.8 - -
24/02:30pm 25.7 - - - - ESE 30 35 16 19 1015.0 - -
24/02:20pm 25.7 - - - - ESE 30 - 16 - - 1014.9 -
24/02:00pm 25.6 - - - - SE 28 33 15 18 1015.2 - -
24/01:30pm 25.6 - - - - ESE 30 33 16 18 1015.2 - -
24/01:20pm 25.6 - - - - ESE 30 - 16 - - 1015.2 -
24/01:00pm 25.5 - - - - ESE 30 33 16 18 1015.6 - -
24/12:30pm 25.6 - - - - SE 32 35 17 19 1015.7 - -
24/12:20pm 25.6 - - - - SE 33 - 18 - - 1015.6 -
24/12:00pm 25.6 - - - - SE 32 37 17 20 1016.0 - -
24/11:30am 25.6 - - - - SE 35 39 19 21 1016.3 - -
24/11:20am 25.6 - - - - ESE 33 - 18 - - 1016.4 -
24/11:00am 25.7 - - - - ESE 32 37 17 20 1016.8 - -
24/10:30am 25.6 - - - - ESE 33 41 18 22 1017.1 - -
24/10:20am 25.8 - - - - ESE 32 - 17 - - 1017.1 -
24/10:00am 25.8 - - - - ESE 32 35 17 19 1017.3 - -
24/09:30am 25.9 - - - - ESE 35 39 19 21 1017.2 - -
24/09:20am 25.7 - - - - ESE 33 - 18 - - 1017.1 -
24/09:00am 25.6 - - - - ESE 30 39 16 21 1017.0 - -
24/08:30am 25.6 - - - - SE 35 39 19 21 1016.9 - -
24/08:20am 25.5 - - - - SE 35 - 19 - - 1016.8 -
24/08:00am 25.3 - - - - ESE 24 39 13 21 1016.8 - -
24/07:30am 25.1 - - - - ESE 32 37 17 20 1016.6 - -
24/07:20am 24.9 - - - - ESE 33 - 18 - - 1016.5 -
24/07:00am 24.8 - - - - E 33 39 18 21 1016.4 - -
24/06:30am 24.1 - - - - E 28 32 15 17 1016.3 - -
24/06:20am 23.5 - - - - SSE 26 - 14 - - 1016.2 -
24/06:14am 23.7 - - - - SSE 30 48 16 26 1016.3 - -
24/06:06am 23.6 - - - - SSE 39 48 21 26 1016.2 - -
24/06:00am 24.2 - - - - E 30 33 16 18 1016.1 - -
24/05:30am 24.1 - - - - ESE 32 37 17 20 1015.6 - -
24/05:20am 23.4 - - - - ESE 37 - 20 - - 1015.4 -
24/05:00am 23.1 - - - - ESE 41 46 22 25 1015.6 - -
24/04:30am 23.5 - - - - E 33 39 18 21 1015.5 - -
24/04:20am 23.7 - - - - E 26 - 14 - - 1015.5 -
24/04:00am 23.5 - - - - E 30 37 16 20 1015.6 - -
24/03:37am 24.0 - - - - E 39 46 21 25 1015.6 - -
24/03:30am 24.9 - - - - SE 35 39 19 21 1015.5 - -
24/03:20am 24.9 - - - - SE 37 - 20 - - 1015.5 -
24/03:00am 24.7 - - - - ESE 35 41 19 22 1015.6 - -
24/02:30am 24.8 - - - - ESE 35 43 19 23 1015.8 - -
24/02:20am 24.8 - - - - ESE 41 - 22 - - 1015.7 -
24/02:00am 24.6 - - - - SE 41 44 22 24 1015.8 - -
24/01:30am 24.3 - - - - SE 39 44 21 24 1016.2 - -
24/01:20am 24.8 - - - - SE 35 - 19 - - 1016.2 -
24/01:00am 25.1 - - - - SE 33 39 18 21 1016.5 - -
24/12:30am 25.1 - - - - SE 33 39 18 21 1016.9 - -
24/12:20am 24.9 - - - - SE 35 - 19 - - 1016.9 -
24/12:00am 25.1 - - - - SE 35 41 19 22 1017.3 - -
 
Date/Time
EST
Temp
°C
App
Temp
°C
Dew
Point
°C
Rel
Hum
%
Delta-T
°C
Wind Press
QNH
hPa
Press
MSL
hPa
Rain since
9am
mm
Dir  Spd
km/h
Gust
km/h
Spd
kts
Gust
kts
23/11:30pm 25.2 - - - - SE 35 39 19 21 1017.6 - -
23/11:20pm 25.3 - - - - SE 33 - 18 - - 1017.5 -
23/11:00pm 25.3 - - - - SE 32 35 17 19 1017.7 - -
23/10:30pm 25.3 - - - - SE 35 41 19 22 1017.7 - -
23/10:20pm 25.1 - - - - SE 35 - 19 - - 1017.7 -
23/10:00pm 25.2 - - - - SE 37 43 20 23 1017.7 - -
23/09:30pm 25.2 - - - - SE 33 39 18 21 1017.8 - -
23/09:20pm 25.3 - - - - SE 35 - 19 - - 1017.7 -
23/09:00pm 25.4 - - - - SE 33 41 18 22 1017.8 - -
23/08:30pm 25.5 - - - - SE 35 41 19 22 1017.6 - -
23/08:20pm 25.6 - - - - SE 35 - 19 - - 1017.4 -
23/08:00pm 25.7 - - - - SE 35 41 19 22 1017.3 - -
23/07:30pm 25.6 - - - - SE 35 43 19 23 1017.0 - -
23/07:20pm 25.7 - - - - SE 37 - 20 - - 1016.8 -
23/07:00pm 25.9 - - - - SE 35 41 19 22 1016.7 - -
23/06:30pm 25.6 - - - - SE 35 43 19 23 1016.4 - -
23/06:20pm 25.6 - - - - SE 37 - 20 - - 1016.1 -
23/06:00pm 25.5 - - - - SE 35 41 19 22 1016.1 - -
23/05:30pm 25.6 - - - - SE 35 43 19 23 1015.8 - -
23/05:20pm 25.7 - - - - SE 35 - 19 - - 1015.6 -
23/05:00pm 25.8 - - - - SE 37 43 20 23 1015.6 - -
23/04:30pm 25.6 - - - - SE 37 44 20 24 1015.3 - -
23/04:20pm 25.8 - - - - SE 37 - 20 - - 1015.2 -
23/04:00pm 25.0 - - - - SE 37 46 20 25 1015.2 - -
23/03:30pm 25.3 - - - - SE 37 44 20 24 1015.2 - -
23/03:20pm 25.8 - - - - SSE 30 - 16 - - 1015.1 -
23/03:00pm 24.6 - - - - SSE 22 28 12 15 1015.4 - -
23/02:30pm 25.2 - - - - SSE 32 35 17 19 1015.6 - -
23/02:20pm 25.3 - - - - SSE 32 - 17 - - 1015.5 -
23/02:00pm 25.2 - - - - SE 33 39 18 21 1015.7 - -
23/01:30pm 25.3 - - - - SE 30 35 16 19 1016.0 - -
23/01:20pm 25.3 - - - - SE 28 - 15 - - 1016.0 -
23/01:00pm 25.4 - - - - SE 30 35 16 19 1016.2 - -
23/12:30pm 25.2 - - - - SE 35 41 19 22 1016.2 - -
23/12:20pm 25.2 - - - - SE 35 - 19 - - 1016.1 -
23/12:00pm 24.8 - - - - SE 41 46 22 25 1016.4 - -
23/11:30am 24.7 - - - - ESE 43 50 23 27 1016.7 - -
23/11:20am 25.0 - - - - ESE 41 - 22 - - 1016.7 -
23/11:00am 24.9 - - - - SE 41 46 22 25 1017.1 - -
23/10:30am 25.2 - - - - SE 41 48 22 26 1017.3 - -
23/10:20am 25.1 - - - - SE 41 - 22 - - 1017.3 -
23/10:00am 25.3 - - - - SE 41 48 22 26 1017.5 - -
23/09:30am 25.2 - - - - SE 41 46 22 25 1017.4 - -
23/09:20am 25.2 - - - - SE 43 - 23 - - 1017.3 -
23/09:00am 25.6 - - - - ESE 37 43 20 23 1017.3 - -
23/08:30am 25.5 - - - - SE 35 41 19 22 1017.3 - -
23/08:20am 25.4 - - - - ESE 33 - 18 - - 1017.0 -
23/08:00am 25.6 - - - - SE 33 39 18 21 1017.1 - -
23/07:30am 25.5 - - - - ESE 33 41 18 22 1016.9 - -
23/07:20am 25.6 - - - - ESE 33 - 18 - - 1016.7 -
23/07:00am 25.6 - - - - ESE 35 43 19 23 1016.6 - -
23/06:30am 25.5 - - - - ESE 33 39 18 21 1016.4 - -
23/06:20am 25.4 - - - - ESE 35 - 19 - - 1016.1 -
23/06:00am 25.5 - - - - ESE 35 39 19 21 1016.0 - -
23/05:30am 25.4 - - - - ESE 35 41 19 22 1015.7 - -
23/05:20am 25.5 - - - - ESE 35 - 19 - - 1015.5 -
23/05:00am 25.4 - - - - ESE 33 39 18 21 1015.4 - -
23/04:30am 25.5 - - - - ESE 35 39 19 21 1015.4 - -
23/04:20am 25.5 - - - - ESE 35 - 19 - - 1015.3 -
23/04:00am 25.4 - - - - ESE 33 41 18 22 1015.4 - -
23/03:30am 25.6 - - - - ESE 35 43 19 23 1015.5 - -
23/03:20am 25.5 - - - - ESE 35 - 19 - - 1015.4 -
23/03:00am 25.4 - - - - ESE 33 41 18 22 1015.6 - -
23/02:30am 25.6 - - - - ESE 35 39 19 21 1015.7 - -
23/02:20am 25.7 - - - - ESE 37 - 20 - - 1015.6 -
23/02:00am 25.4 - - - - ESE 35 41 19 22 1015.8 - -
23/01:30am 25.3 - - - - ESE 33 41 18 22 1016.2 - -
23/01:20am 25.3 - - - - ESE 33 - 18 - - 1016.1 -
23/01:00am 24.9 - - - - SE 33 35 18 19 1016.3 - -

Other Formats:

Comma delimited format used in spreadsheet applications
http://www.bom.gov.au/fwo/IDQ60801/IDQ60801.94371.axf

JavaScript Object Notation format (JSON) in row-major order
http://www.bom.gov.au/fwo/IDQ60801/IDQ60801.94371.json